Flight Track Log - Related Links

Times and Time Zones

All times are in EDT time to prevent confusion due to time zone crossing. See the EJA396 flight status page for this flight to view local times or setup timezone preferences in your user account.

Time Position Orientation Groundspeed Altitude Reporting Facility
EDT Latitude Longitude Course Direction KTS MPH feet Rate Location/Type
Fri 04:28:28 PM 41.7833 -87.8167 217° Southwest 202 232 3,000  Level Chicago TRACON
Fri 04:29:28 PM 41.7333 -87.8667 217° Southwest 246 283 3,200 2,714 Climbing Chicago TRACON
Fri 04:30:34 PM 41.6667 -87.9167 209° Southwest 244 281 8,700 4,161 Climbing Chicago TRACON
Fri 04:31:45 PM 41.5983 -87.9844 217° Southwest 270 311 12,700 3,383 Climbing Chicago Center
Fri 04:32:47 PM 41.5211 -88.0319 205° Southwest 309 356 16,200 3,290 Climbing Chicago Center
Fri 04:33:00 PM 41.4208 -88.1292 217° Southwest  Level FlightAware Approximate
Fri 04:33:49 PM 41.4444 -88.0733 202° Southwest 323 372 19,500  Level Chicago Center
Fri 04:35:36 PM 41.2897 -88.1561 202° Southwest 332 382 25,800 3,321 Climbing Kansas City Center
Fri 04:36:37 PM 41.2083 -88.1975 201° Southwest 319 367 28,800 2,016 Climbing Kansas City Center
Fri 04:37:41 PM 41.1322 -88.2411 203° Southwest 305 351 30,000 672 Climbing Kansas City Center
Fri 04:38:42 PM 41.0525 -88.3461 225° Southwest 332 382 30,200 576 Climbing Kansas City Center
Fri 04:39:46 PM 40.9903 -88.4356 227° Southwest 334 384 31,200 864 Climbing Kansas City Center
Fri 04:40:47 PM 40.9311 -88.5200 227° Southwest 320 368 32,000 397 Climbing Kansas City Center
Fri 04:41:47 PM 40.8739 -88.6064 229° Southwest 314 361 32,000 581 Level Kansas City Center
Fri 04:42:51 PM 40.8136 -88.6933 228° Southwest 315 362 33,200 1,296 Climbing Kansas City Center
Fri 04:43:52 PM 40.7556 -88.7778 228° Southwest 315 362 34,700 1,574 Climbing Kansas City Center
Fri 04:44:53 PM 40.6844 -88.8794 227° Southwest 315 362 36,400 1,536 Climbing Kansas City Center
Fri 04:45:57 PM 40.6253 -88.9636 227° Southwest 315 362 37,900 768 Climbing Kansas City Center
Fri 04:46:58 PM 40.5658 -89.0492 228° Southwest 314 361 38,000 48 Climbing Kansas City Center
Fri 04:48:02 PM 40.5022 -89.1411 228° Southwest 326 375 38,000  Level Kansas City Center
Fri 04:49:02 PM 40.4372 -89.2342 227° Southwest 336 387 38,000  Level Kansas City Center
Fri 04:50:06 PM 40.3708 -89.3275 227° Southwest 342 394 38,000  Level Kansas City Center
Fri 04:51:08 PM 40.3047 -89.4200 227° Southwest 344 396 38,000  Level Kansas City Center
Fri 04:52:09 PM 40.2264 -89.5319 228° Southwest 344 396 38,000  Level Kansas City Center
Fri 04:53:10 PM 40.1617 -89.6236 227° Southwest 344 396 38,000  Level Kansas City Center
Fri 04:54:14 PM 40.0928 -89.7106 224° Southwest 344 396 38,000  Level Kansas City Center
Fri 04:55:14 PM 40.0142 -89.7814 215° Southwest 344 396 38,000  Level Kansas City Center
Fri 04:56:18 PM 39.9361 -89.8533 215° Southwest 344 396 38,000  Level Kansas City Center
Fri 04:57:21 PM 39.8575 -89.9242 215° Southwest 344 396 38,000  Level Kansas City Center
Fri 04:58:21 PM 39.7967 -90.0161 229° Southwest 341 392 38,000  Level Kansas City Center
Fri 04:59:25 PM 39.7303 -90.1369 234° Southwest 341 392 38,000  Level Kansas City Center
Fri 05:00:26 PM 39.6789 -90.2300 234° Southwest 341 392 38,000  Level Kansas City Center
Fri 05:01:26 PM 39.6242 -90.3294 234° Southwest 341 392 38,000  Level Kansas City Center
Fri 05:02:31 PM 39.5692 -90.4281 234° Southwest 341 392 38,000  Level Kansas City Center
Fri 05:03:32 PM 39.5025 -90.5458 234° Southwest 341 392 38,000  Level Kansas City Center
Fri 05:04:33 PM 39.4469 -90.6447 234° Southwest 341 392 38,000  Level Kansas City Center
Fri 05:05:36 PM 39.3919 -90.7419 234° Southwest 341 392 38,000  Level Kansas City Center
Fri 05:06:38 PM 39.3364 -90.8394 234° Southwest 338 389 38,000  Level Kansas City Center
Fri 05:07:39 PM 39.2794 -90.9386 233° Southwest 340 391 38,000  Level Kansas City Center
Fri 05:08:42 PM 39.2117 -91.0583 234° Southwest 343 395 38,000  Level Kansas City Center
Fri 05:09:43 PM 39.1547 -91.1564 233° Southwest 343 395 38,000  Level Kansas City Center
Fri 05:10:47 PM 39.0978 -91.2553 233° Southwest 343 395 38,000  Level Kansas City Center
Fri 05:11:48 PM 39.0419 -91.3533 234° Southwest 343 395 38,000  Level Kansas City Center
Fri 05:12:51 PM 38.9836 -91.4528 233° Southwest 345 397 38,000  Level Kansas City Center
Fri 05:13:52 PM 38.9153 -91.5742 234° Southwest 349 402 38,000  Level Kansas City Center
Fri 05:14:54 PM 38.8572 -91.6731 233° Southwest 349 402 38,000  Level Kansas City Center
Fri 05:15:55 PM 38.7939 -91.7781 232° Southwest 350 403 38,000  Level Kansas City Center
Fri 05:16:58 PM 38.7350 -91.8792 233° Southwest 353 406 38,000  Level Kansas City Center
Fri 05:18:02 PM 38.6764 -91.9797 233° Southwest 353 406 38,000  Level Kansas City Center
Fri 05:19:03 PM 38.6169 -92.0806 233° Southwest 353 406 38,000  Level Kansas City Center
Fri 05:20:03 PM 38.5572 -92.1811 233° Southwest 354 407 38,000  Level Kansas City Center
Fri 05:21:08 PM 38.4858 -92.3008 233° Southwest 354 407 38,000  Level Kansas City Center
Fri 05:22:09 PM 38.4261 -92.4006 233° Southwest 355 409 38,000  Level Kansas City Center
Fri 05:23:10 PM 38.3664 -92.5003 233° Southwest 355 409 38,000  Level Kansas City Center
Fri 05:24:14 PM 38.3075 -92.5986 233° Southwest 355 409 38,000  Level Kansas City Center
Fri 05:25:14 PM 38.2481 -92.6983 233° Southwest 355 409 38,000  Level Kansas City Center
Fri 05:26:19 PM 38.1758 -92.8175 232° Southwest 356 410 38,000  Level Kansas City Center
Fri 05:27:19 PM 38.1156 -92.9164 232° Southwest 356 410 38,000  Level Kansas City Center
Fri 05:28:22 PM 38.0556 -93.0139 232° Southwest 356 410 38,000  Level Kansas City Center
Fri 05:29:24 PM 37.9953 -93.1119 232° Southwest 356 410 38,000  Level Kansas City Center
Fri 05:30:24 PM 37.9367 -93.2094 233° Southwest 351 404 38,000  Level Kansas City Center
Fri 05:31:28 PM 37.8772 -93.3075 232° Southwest 351 404 38,000  Level Kansas City Center
Fri 05:32:29 PM 37.8036 -93.4244 231° Southwest 351 404 38,000  Level Kansas City Center
Fri 05:33:30 PM 37.7431 -93.5239 232° Southwest 353 406 38,000  Level Kansas City Center
Fri 05:34:33 PM 37.6814 -93.6219 232° Southwest 353 406 38,000  Level Kansas City Center
Fri 05:35:37 PM 37.6197 -93.7200 232° Southwest 354 407 38,000 -528 Level Kansas City Center
Fri 05:36:38 PM 37.5583 -93.8189 232° Southwest 355 409 36,900 -1,525 Descending Kansas City Center
Fri 05:37:39 PM 37.4989 -93.9128 231° Southwest 348 400 34,900 -2,129 Descending Kansas City Center
Fri 05:38:42 PM 37.4269 -94.0311 233° Southwest 356 410 32,500 -2,016 Descending Kansas City Center
Fri 05:39:44 PM 37.3658 -94.1258 231° Southwest 384 442 30,700 -1,869 Descending Kansas City Center
Fri 05:40:44 PM 37.2969 -94.2342 231° Southwest 392 451 28,700 -2,112 Descending Kansas City Center
Fri 05:41:49 PM 37.2147 -94.3650 232° Southwest 393 452 26,300 -2,112 Descending Kansas City Center
Fri 05:42:49 PM 37.1497 -94.4692 232° Southwest 385 443 24,300 -1,935 Descending Kansas City Center
Fri 05:43:53 PM 37.0856 -94.5689 231° Southwest 374 430 22,300 -1,920 Descending Kansas City Center
Fri 05:44:54 PM 37.0231 -94.6661 231° Southwest 362 417 20,300 -1,967 Descending Kansas City Center
Fri 05:45:55 PM 36.9625 -94.7611 231° Southwest 352 405 18,300 -1,920 Descending Kansas City Center
Fri 05:46:59 PM 36.9028 -94.8556 232° Southwest 351 404 16,300 -2,160 Descending Kansas City Center
Fri 05:48:00 PM 36.8317 -94.9678 232° Southwest 347 399 13,800 -2,213 Descending Kansas City Center
Fri 05:49:01 PM 36.7717 -95.0569 230° Southwest 342 394 11,800 -1,975 Descending Kansas City Center
Fri 05:49:19 PM 36.7578 -95.0828 236° Southwest 333 383 11,200 -1,742 Descending Kansas City Center
Fri 05:50:03 PM 36.7150 -95.1453 230° Southwest 333 383 10,000 -1,059 Descending Kansas City Center
Fri 05:50:27 PM 36.6917 -95.1858 234° Southwest 325 374 10,000  Level Kansas City Center
Fri 05:51:06 PM 36.6583 -95.2322 228° Southwest 329 379 10,000  Level Kansas City Center
Fri 05:51:28 PM 36.6297 -95.2675 225° Southwest 323 372 10,000  Level Kansas City Center
Fri 05:52:08 PM 36.5942 -95.3122 225° Southwest 327 376 10,000  Level Kansas City Center
Fri 05:52:27 PM 36.5767 -95.3556 243° Southwest 330 380 10,000  Level Kansas City Center
Fri 05:53:09 PM 36.5514 -95.4111 240° Southwest 327 376 10,000  Level Kansas City Center
Fri 05:53:28 PM 36.5331 -95.4550 243° Southwest 328 377 10,000  Level Kansas City Center
Fri 05:54:11 PM 36.5017 -95.5261 241° Southwest 323 372 10,000 -218 Level Kansas City Center
Fri 05:54:23 PM 36.4944 -95.5408 239° Southwest 304 350 9,800 -1,781 Descending Kansas City Center
Fri 05:55:15 PM 36.4678 -95.6036 242° Southwest 263 303 8,100 -2,149 Descending Kansas City Center
Fri 05:55:30 PM 36.4567 -95.6344 246° West 252 290 7,400 -2,066 Descending Kansas City Center
Fri 05:56:16 PM 36.4322 -95.6861 240° Southwest 267 307 6,000 -1,241 Descending Kansas City Center
Fri 05:57:26 PM 36.3867 -95.7969 243° Southwest 278 320 5,000 -968 Descending Kansas City Center
Fri 05:58:20 PM 36.3550 -95.8711 242° Southwest 275 316 4,000 -783 Descending Kansas City Center
Fri 05:59:21 PM 36.3244 -95.9503 244° Southwest 257 296 3,500 -555 Descending Kansas City Center
Fri 06:00:19 PM 36.2781 -95.9978 220° Southwest 224 258 2,900 -629 Descending Kansas City Center
Fri 06:01:25 PM 36.2206 -95.9869 171° South 167 192 2,200 -595 Descending Kansas City Center
Fri 06:02:30 PM 36.1953 -95.9528 133° Southeast 175 201 1,600 -624 Descending Kansas City Center
Fri 06:03:30 PM 36.1942 -95.9111 92° East 142 163 900 -700 Descending Kansas City Center

Login

Don't have an account? Register now (free) for customized features, flight alerts, and more!